Five Points, Tennessee
Current Conditions -  °F | °C
As of 2:53 PM on Friday 21 Nov 2014 (Local Time) from KMSL Reporting Station
Clear Clear  
Wind Chill: 60°   Ceiling: Unl
Heat Index: 60°   Visibility: 10mi
Dew Point: 35°   Wind: 6mph
Humidity: 39%   Direction: 80°E
Pressure: 30.34"   Gusts: NA
Location:  35.05°N, 87.31°W
Report Text: KMSL 212053Z AUTO 08005KT 10SM CLR 16/02 A3034 RMK AO2 SLP272 T01560017 56018
Loading
Personal Weather Stations






























Interactive Weather Map New forecast layout! Learn more

10-Day Weather Forecast

Advertisements
Track Severe Weather on mobile